sensor_id;sensor_type;location;lat;lon;timestamp;pressure;altitude;pressure_sealevel;temperature;humidity
74936;BME280;63501;55.570;37.488;2022-10-04T00:03:04;97771.28;;;8.97;98.92
74936;BME280;63501;55.570;37.488;2022-10-04T00:05:31;97761.84;;;8.98;98.90
74936;BME280;63501;55.570;37.488;2022-10-04T00:08:12;97754.69;;;9.01;99.60
74936;BME280;63501;55.570;37.488;2022-10-04T00:10:42;97759.09;;;8.98;99.40
74936;BME280;63501;55.570;37.488;2022-10-04T00:13:21;97766.59;;;8.98;99.23
74936;BME280;63501;55.570;37.488;2022-10-04T00:15:49;97754.75;;;8.97;99.12
74936;BME280;63501;55.570;37.488;2022-10-04T00:18:37;97770.47;;;9.00;99.13
74936;BME280;63501;55.570;37.488;2022-10-04T00:21:04;97757.81;;;9.03;99.32
74936;BME280;63501;55.570;37.488;2022-10-04T00:26:05;97760.22;;;9.01;99.42
74936;BME280;63501;55.570;37.488;2022-10-04T00:31:12;97781.91;;;8.99;99.26
74936;BME280;63501;55.570;37.488;2022-10-04T00:33:48;97764.59;;;8.98;99.30
74936;BME280;63501;55.570;37.488;2022-10-04T00:39:12;97779.66;;;8.94;99.29
74936;BME280;63501;55.570;37.488;2022-10-04T00:44:35;97780.47;;;8.91;99.08
74936;BME280;63501;55.570;37.488;2022-10-04T00:47:22;97791.88;;;8.93;99.13
74936;BME280;63501;55.570;37.488;2022-10-04T00:49:54;97782.41;;;8.94;99.49
74936;BME280;63501;55.570;37.488;2022-10-04T00:52:25;97784.38;;;8.93;99.50
74936;BME280;63501;55.570;37.488;2022-10-04T00:54:57;97790.28;;;8.92;99.26
74936;BME280;63501;55.570;37.488;2022-10-04T00:57:28;97775.38;;;8.89;99.41
74936;BME280;63501;55.570;37.488;2022-10-04T00:59:58;97787.13;;;8.93;99.31
74936;BME280;63501;55.570;37.488;2022-10-04T01:02:42;97779.25;;;8.92;99.23
74936;BME280;63501;55.570;37.488;2022-10-04T01:05:21;97776.13;;;8.93;99.21
74936;BME280;63501;55.570;37.488;2022-10-04T01:08:15;97776.16;;;8.90;99.96
74936;BME280;63501;55.570;37.488;2022-10-04T01:10:50;97775.88;;;8.84;99.21
74936;BME280;63501;55.570;37.488;2022-10-04T01:13:23;97793.66;;;8.80;99.22
74936;BME280;63501;55.570;37.488;2022-10-04T01:15:55;97788.28;;;8.72;99.08
74936;BME280;63501;55.570;37.488;2022-10-04T01:29:16;97797.97;;;8.57;99.23
74936;BME280;63501;55.570;37.488;2022-10-04T01:31:47;97795.63;;;8.56;99.66
74936;BME280;63501;55.570;37.488;2022-10-04T01:34:16;97798.81;;;8.54;99.46
74936;BME280;63501;55.570;37.488;2022-10-04T01:36:42;97791.69;;;8.57;99.18
74936;BME280;63501;55.570;37.488;2022-10-04T01:39:12;97809.72;;;8.61;99.43
74936;BME280;63501;55.570;37.488;2022-10-04T01:41:41;97801.03;;;8.63;99.22
74936;BME280;63501;55.570;37.488;2022-10-04T01:44:23;97794.00;;;8.58;99.38
74936;BME280;63501;55.570;37.488;2022-10-04T01:46:51;97802.69;;;8.57;99.59
74936;BME280;63501;55.570;37.488;2022-10-04T01:49:19;97805.91;;;8.52;99.11
74936;BME280;63501;55.570;37.488;2022-10-04T01:54:22;97795.06;;;8.41;99.28
74936;BME280;63501;55.570;37.488;2022-10-04T01:59:45;97810.22;;;8.26;99.47
74936;BME280;63501;55.570;37.488;2022-10-04T02:02:27;97813.53;;;8.13;99.05
74936;BME280;63501;55.570;37.488;2022-10-04T02:04:56;97825.38;;;8.10;99.43
74936;BME280;63501;55.570;37.488;2022-10-04T02:07:25;97813.63;;;8.06;98.89
74936;BME280;63501;55.570;37.488;2022-10-04T02:09:56;97806.69;;;7.98;99.32
74936;BME280;63501;55.570;37.488;2022-10-04T02:12:27;97812.25;;;7.91;99.14
74936;BME280;63501;55.570;37.488;2022-10-04T02:14:57;97822.81;;;7.96;99.10
74936;BME280;63501;55.570;37.488;2022-10-04T02:17:29;97824.06;;;7.91;99.60
74936;BME280;63501;55.570;37.488;2022-10-04T02:19:57;97817.91;;;7.80;99.00
74936;BME280;63501;55.570;37.488;2022-10-04T02:22:24;97827.44;;;7.72;99.04
74936;BME280;63501;55.570;37.488;2022-10-04T02:24:52;97815.47;;;7.55;98.87
74936;BME280;63501;55.570;37.488;2022-10-04T02:27:19;97821.25;;;7.64;99.47
74936;BME280;63501;55.570;37.488;2022-10-04T02:29:50;97829.84;;;7.70;99.21
74936;BME280;63501;55.570;37.488;2022-10-04T02:32:15;97825.88;;;7.71;98.66
74936;BME280;63501;55.570;37.488;2022-10-04T02:34:59;97818.44;;;7.68;99.59
74936;BME280;63501;55.570;37.488;2022-10-04T02:37:26;97829.38;;;7.75;99.56
74936;BME280;63501;55.570;37.488;2022-10-04T02:40:18;97827.31;;;7.83;99.02
74936;BME280;63501;55.570;37.488;2022-10-04T02:42:57;97825.34;;;7.83;99.19
74936;BME280;63501;55.570;37.488;2022-10-04T02:45:53;97825.84;;;7.75;99.03
74936;BME280;63501;55.570;37.488;2022-10-04T02:50:55;97828.75;;;7.60;98.81
74936;BME280;63501;55.570;37.488;2022-10-04T02:53:41;97841.72;;;7.63;99.38
74936;BME280;63501;55.570;37.488;2022-10-04T02:56:10;97828.84;;;7.53;99.21
74936;BME280;63501;55.570;37.488;2022-10-04T02:58:38;97841.81;;;7.53;99.20
74936;BME280;63501;55.570;37.488;2022-10-04T03:01:05;97849.28;;;7.52;99.39
74936;BME280;63501;55.570;37.488;2022-10-04T03:03:36;97853.28;;;7.48;99.35
74936;BME280;63501;55.570;37.488;2022-10-04T03:08:35;97837.13;;;7.50;99.76
74936;BME280;63501;55.570;37.488;2022-10-04T03:11:10;97857.91;;;7.54;99.74
74936;BME280;63501;55.570;37.488;2022-10-04T03:13:40;97852.00;;;7.56;99.52
74936;BME280;63501;55.570;37.488;2022-10-04T03:16:08;97847.22;;;7.63;99.27
74936;BME280;63501;55.570;37.488;2022-10-04T03:18:35;97851.06;;;7.69;99.59
74936;BME280;63501;55.570;37.488;2022-10-04T03:21:06;97843.25;;;7.64;100.00
74936;BME280;63501;55.570;37.488;2022-10-04T03:23:33;97844.50;;;7.56;99.96
74936;BME280;63501;55.570;37.488;2022-10-04T03:26:03;97852.06;;;7.49;99.28
74936;BME280;63501;55.570;37.488;2022-10-04T03:28:31;97863.94;;;7.42;99.11
74936;BME280;63501;55.570;37.488;2022-10-04T03:30:56;97849.78;;;7.43;99.47
74936;BME280;63501;55.570;37.488;2022-10-04T03:33:24;97850.44;;;7.55;99.61
74936;BME280;63501;55.570;37.488;2022-10-04T03:35:51;97847.22;;;7.63;99.30
74936;BME280;63501;55.570;37.488;2022-10-04T03:38:19;97854.97;;;7.68;99.88
74936;BME280;63501;55.570;37.488;2022-10-04T03:40:50;97846.03;;;7.61;99.54
74936;BME280;63501;55.570;37.488;2022-10-04T03:43:18;97837.78;;;7.61;99.89
74936;BME280;63501;55.570;37.488;2022-10-04T03:45:45;97859.72;;;7.68;100.00
74936;BME280;63501;55.570;37.488;2022-10-04T03:48:13;97854.91;;;7.76;99.90
74936;BME280;63501;55.570;37.488;2022-10-04T03:50:46;97854.16;;;7.75;99.77
74936;BME280;63501;55.570;37.488;2022-10-04T03:55:58;97854.41;;;7.50;99.94
74936;BME280;63501;55.570;37.488;2022-10-04T03:58:25;97866.69;;;7.42;99.86
74936;BME280;63501;55.570;37.488;2022-10-04T04:00:57;97863.19;;;7.38;98.98
74936;BME280;63501;55.570;37.488;2022-10-04T04:03:28;97857.00;;;7.27;99.25
74936;BME280;63501;55.570;37.488;2022-10-04T04:05:57;97876.56;;;7.36;99.17
74936;BME280;63501;55.570;37.488;2022-10-04T04:08:35;97875.03;;;7.31;99.75
74936;BME280;63501;55.570;37.488;2022-10-04T04:11:06;97871.16;;;7.25;99.29
74936;BME280;63501;55.570;37.488;2022-10-04T04:13:49;97875.06;;;7.28;98.97
74936;BME280;63501;55.570;37.488;2022-10-04T04:16:21;97882.16;;;7.25;99.70
74936;BME280;63501;55.570;37.488;2022-10-04T04:18:51;97876.31;;;7.20;99.28
74936;BME280;63501;55.570;37.488;2022-10-04T04:21:19;97892.41;;;7.21;99.13
74936;BME280;63501;55.570;37.488;2022-10-04T04:24:05;97882.56;;;7.24;99.18
74936;BME280;63501;55.570;37.488;2022-10-04T04:26:39;97886.47;;;7.26;99.42
74936;BME280;63501;55.570;37.488;2022-10-04T04:29:13;97875.03;;;7.31;98.88
74936;BME280;63501;55.570;37.488;2022-10-04T04:31:50;97898.59;;;7.32;99.49
74936;BME280;63501;55.570;37.488;2022-10-04T04:34:24;97904.44;;;7.34;99.41
74936;BME280;63501;55.570;37.488;2022-10-04T04:36:50;97884.38;;;7.41;99.87
74936;BME280;63501;55.570;37.488;2022-10-04T04:39:20;97887.00;;;7.52;98.95
74936;BME280;63501;55.570;37.488;2022-10-04T04:42:24;97883.31;;;7.65;99.53
74936;BME280;63501;55.570;37.488;2022-10-04T04:45:11;97897.88;;;7.62;99.10
74936;BME280;63501;55.570;37.488;2022-10-04T04:47:43;97889.69;;;7.59;99.59
74936;BME280;63501;55.570;37.488;2022-10-04T04:50:24;97899.00;;;7.68;99.02
74936;BME280;63501;55.570;37.488;2022-10-04T04:55:43;97895.75;;;7.81;99.29
74936;BME280;63501;55.570;37.488;2022-10-04T04:58:19;97892.88;;;7.91;99.13
74936;BME280;63501;55.570;37.488;2022-10-04T05:03:22;97904.09;;;8.38;99.51
74936;BME280;63501;55.570;37.488;2022-10-04T05:05:48;97913.00;;;8.50;99.49
74936;BME280;63501;55.570;37.488;2022-10-04T05:13:22;97917.44;;;8.40;99.16
74936;BME280;63501;55.570;37.488;2022-10-04T05:15:53;97920.09;;;8.47;99.64
74936;BME280;63501;55.570;37.488;2022-10-04T05:20:53;97918.81;;;8.55;99.36
74936;BME280;63501;55.570;37.488;2022-10-04T05:23:20;97918.41;;;8.57;99.78
74936;BME280;63501;55.570;37.488;2022-10-04T05:25:46;97914.91;;;8.80;99.46
74936;BME280;63501;55.570;37.488;2022-10-04T05:28:13;97917.69;;;9.03;99.86
74936;BME280;63501;55.570;37.488;2022-10-04T05:33:35;97914.66;;;9.21;99.75
74936;BME280;63501;55.570;37.488;2022-10-04T05:38:52;97921.31;;;9.23;100.00
74936;BME280;63501;55.570;37.488;2022-10-04T05:44:23;97931.88;;;9.28;100.00
74936;BME280;63501;55.570;37.488;2022-10-04T05:46:51;97935.34;;;9.33;99.80
74936;BME280;63501;55.570;37.488;2022-10-04T05:49:19;97922.41;;;9.30;100.00
74936;BME280;63501;55.570;37.488;2022-10-04T05:51:56;97929.84;;;9.33;100.00
74936;BME280;63501;55.570;37.488;2022-10-04T05:54:32;97922.03;;;9.27;99.97
74936;BME280;63501;55.570;37.488;2022-10-04T06:00:08;97931.53;;;9.26;100.00
74936;BME280;63501;55.570;37.488;2022-10-04T06:06:34;97924.03;;;9.27;100.00
74936;BME280;63501;55.570;37.488;2022-10-04T06:11:01;97935.16;;;9.20;100.00
74936;BME280;63501;55.570;37.488;2022-10-04T06:16:38;97945.97;;;9.34;100.00
74936;BME280;63501;55.570;37.488;2022-10-04T06:22:13;97952.38;;;9.51;100.00
74936;BME280;63501;55.570;37.488;2022-10-04T06:24:39;97949.13;;;9.56;100.00
74936;BME280;63501;55.570;37.488;2022-10-04T06:27:10;97949.78;;;9.64;100.00
74936;BME280;63501;55.570;37.488;2022-10-04T06:29:57;97950.81;;;9.73;100.00
74936;BME280;63501;55.570;37.488;2022-10-04T06:40:57;97942.97;;;9.92;100.00
74936;BME280;63501;55.570;37.488;2022-10-04T06:43:49;97948.78;;;9.97;100.00
74936;BME280;63501;55.570;37.488;2022-10-04T06:46:42;97958.13;;;10.03;100.00
74936;BME280;63501;55.570;37.488;2022-10-04T06:49:34;97956.94;;;10.04;100.00
74936;BME280;63501;55.570;37.488;2022-10-04T06:55:32;97956.72;;;10.15;100.00
74936;BME280;63501;55.570;37.488;2022-10-04T07:00:28;97930.19;;;10.41;100.00
74936;BME280;63501;55.570;37.488;2022-10-04T07:03:16;97939.75;;;10.37;100.00
74936;BME280;63501;55.570;37.488;2022-10-04T07:05:53;97958.09;;;10.47;100.00
74936;BME280;63501;55.570;37.488;2022-10-04T07:08:28;97944.81;;;10.58;100.00
74936;BME280;63501;55.570;37.488;2022-10-04T07:30:44;97957.78;;;10.61;100.00
74936;BME280;63501;55.570;37.488;2022-10-04T07:33:19;97969.84;;;10.87;100.00
74936;BME280;63501;55.570;37.488;2022-10-04T07:36:13;97959.59;;;11.20;100.00
74936;BME280;63501;55.570;37.488;2022-10-04T07:38:45;97966.25;;;11.39;100.00
74936;BME280;63501;55.570;37.488;2022-10-04T07:41:28;97947.94;;;11.29;100.00
74936;BME280;63501;55.570;37.488;2022-10-04T07:44:00;97951.81;;;11.48;100.00
74936;BME280;63501;55.570;37.488;2022-10-04T07:46:43;97945.88;;;11.78;100.00
74936;BME280;63501;55.570;37.488;2022-10-04T07:49:19;97932.59;;;11.73;100.00
74936;BME280;63501;55.570;37.488;2022-10-04T08:00:22;97951.50;;;12.07;100.00
74936;BME280;63501;55.570;37.488;2022-10-04T08:06:50;97942.41;;;12.49;100.00
74936;BME280;63501;55.570;37.488;2022-10-04T08:12:05;97934.41;;;12.51;100.00
74936;BME280;63501;55.570;37.488;2022-10-04T08:15:23;97951.84;;;12.22;99.93
74936;BME280;63501;55.570;37.488;2022-10-04T08:25:50;97956.66;;;11.60;100.00
74936;BME280;63501;55.570;37.488;2022-10-04T08:28:56;97963.66;;;11.64;100.00
74936;BME280;63501;55.570;37.488;2022-10-04T08:34:53;97941.28;;;12.04;99.79
74936;BME280;63501;55.570;37.488;2022-10-04T09:02:33;97952.47;;;14.05;100.00
74936;BME280;63501;55.570;37.488;2022-10-04T09:17:20;97923.50;;;17.19;100.00
74936;BME280;63501;55.570;37.488;2022-10-04T09:25:48;97908.84;;;15.57;99.59
74936;BME280;63501;55.570;37.488;2022-10-04T09:34:34;97942.69;;;13.31;97.08
74936;BME280;63501;55.570;37.488;2022-10-04T09:37:28;97923.69;;;13.04;97.45
74936;BME280;63501;55.570;37.488;2022-10-04T09:45:50;97947.06;;;12.52;98.62
74936;BME280;63501;55.570;37.488;2022-10-04T09:54:01;97942.88;;;12.18;99.57
74936;BME280;63501;55.570;37.488;2022-10-04T09:59:17;97948.84;;;11.87;99.00
74936;BME280;63501;55.570;37.488;2022-10-04T10:02:17;97963.84;;;11.90;99.21
74936;BME280;63501;55.570;37.488;2022-10-04T10:11:14;97960.69;;;11.88;99.98
74936;BME280;63501;55.570;37.488;2022-10-04T10:30:22;98106.84;;;8.21;96.84
74936;BME280;63501;55.570;37.488;2022-10-04T10:52:15;98203.63;;;6.20;97.58
74936;BME280;63501;55.570;37.488;2022-10-04T10:55:23;98176.19;;;6.09;98.18
74936;BME280;63501;55.570;37.488;2022-10-04T11:04:05;98180.88;;;6.16;99.11
74936;BME280;63501;55.570;37.488;2022-10-04T11:21:19;98192.25;;;6.39;99.93
74936;BME280;63501;55.570;37.488;2022-10-04T11:46:26;98191.38;;;6.81;99.74
74936;BME280;63501;55.570;37.488;2022-10-04T11:55:15;98206.84;;;7.49;99.96
74936;BME280;63501;55.570;37.488;2022-10-04T12:00:22;98180.84;;;7.60;99.85
74936;BME280;63501;55.570;37.488;2022-10-04T12:08:57;98187.41;;;8.74;100.00
74936;BME280;63501;55.570;37.488;2022-10-04T12:26:04;98181.28;;;9.58;100.00
74936;BME280;63501;55.570;37.488;2022-10-04T12:31:27;98198.06;;;9.40;100.00
74936;BME280;63501;55.570;37.488;2022-10-04T12:34:04;98198.13;;;9.67;99.82
74936;BME280;63501;55.570;37.488;2022-10-04T12:36:55;98210.72;;;10.22;99.63
74936;BME280;63501;55.570;37.488;2022-10-04T12:39:36;98207.31;;;10.62;99.98
74936;BME280;63501;55.570;37.488;2022-10-04T12:48:30;98211.41;;;10.53;99.57
74936;BME280;63501;55.570;37.488;2022-10-04T12:59:59;98231.50;;;9.46;98.63
74936;BME280;63501;55.570;37.488;2022-10-04T13:03:03;98228.66;;;9.19;98.84
74936;BME280;63501;55.570;37.488;2022-10-04T13:22:04;98247.16;;;8.84;99.47
74936;BME280;63501;55.570;37.488;2022-10-04T13:30:13;98256.03;;;8.61;99.67
74936;BME280;63501;55.570;37.488;2022-10-04T13:35:33;98254.06;;;8.58;99.54
74936;BME280;63501;55.570;37.488;2022-10-04T13:46:22;98268.78;;;8.41;99.71
74936;BME280;63501;55.570;37.488;2022-10-04T13:55:14;98246.09;;;8.22;100.00
74936;BME280;63501;55.570;37.488;2022-10-04T14:18:28;98271.41;;;7.96;99.98
74936;BME280;63501;55.570;37.488;2022-10-04T14:21:26;98265.53;;;7.94;100.00
74936;BME280;63501;55.570;37.488;2022-10-04T14:24:19;98271.81;;;7.94;100.00
74936;BME280;63501;55.570;37.488;2022-10-04T14:35:15;98265.53;;;7.98;100.00
74936;BME280;63501;55.570;37.488;2022-10-04T14:38:00;98274.94;;;7.96;100.00
74936;BME280;63501;55.570;37.488;2022-10-04T14:48:50;98282.53;;;7.82;100.00
74936;BME280;63501;55.570;37.488;2022-10-04T14:57:50;98269.63;;;7.61;100.00
74936;BME280;63501;55.570;37.488;2022-10-04T15:00:09;98284.16;;;7.65;100.00
74936;BME280;63501;55.570;37.488;2022-10-04T15:05:27;98292.00;;;7.66;100.00
74936;BME280;63501;55.570;37.488;2022-10-04T15:11:08;98283.81;;;7.59;100.00
74936;BME280;63501;55.570;37.488;2022-10-04T15:18:53;98300.69;;;7.65;100.00
74936;BME280;63501;55.570;37.488;2022-10-04T15:24:28;98297.94;;;7.61;100.00
74936;BME280;63501;55.570;37.488;2022-10-04T15:27:21;98304.63;;;7.60;100.00
74936;BME280;63501;55.570;37.488;2022-10-04T15:30:23;98305.00;;;7.62;100.00
74936;BME280;63501;55.570;37.488;2022-10-04T15:35:34;98297.50;;;7.70;100.00
74936;BME280;63501;55.570;37.488;2022-10-04T15:38:33;98305.34;;;7.72;100.00
74936;BME280;63501;55.570;37.488;2022-10-04T15:41:01;98310.88;;;7.72;100.00
74936;BME280;63501;55.570;37.488;2022-10-04T15:43:43;98307.75;;;7.69;100.00
74936;BME280;63501;55.570;37.488;2022-10-04T16:06:39;98319.91;;;7.76;100.00
74936;BME280;63501;55.570;37.488;2022-10-04T16:12:16;98304.16;;;7.76;100.00
74936;BME280;63501;55.570;37.488;2022-10-04T16:25:45;98320.25;;;7.81;100.00
74936;BME280;63501;55.570;37.488;2022-10-04T16:34:02;98308.84;;;7.86;100.00
74936;BME280;63501;55.570;37.488;2022-10-04T16:39:56;98284.91;;;7.76;100.00
74936;BME280;63501;55.570;37.488;2022-10-04T16:47:36;98312.00;;;7.81;100.00
74936;BME280;63501;55.570;37.488;2022-10-04T16:50:08;98316.72;;;7.81;100.00
74936;BME280;63501;55.570;37.488;2022-10-04T16:52:41;98319.06;;;7.79;100.00
74936;BME280;63501;55.570;37.488;2022-10-04T17:04:08;98324.56;;;7.82;100.00
74936;BME280;63501;55.570;37.488;2022-10-04T17:06:58;98323.75;;;7.85;100.00
74936;BME280;63501;55.570;37.488;2022-10-04T17:12:17;98325.00;;;7.77;100.00
74936;BME280;63501;55.570;37.488;2022-10-04T17:19:55;98314.84;;;7.60;100.00
74936;BME280;63501;55.570;37.488;2022-10-04T17:22:58;98331.72;;;7.62;100.00
74936;BME280;63501;55.570;37.488;2022-10-04T17:25:41;98323.47;;;7.62;100.00
74936;BME280;63501;55.570;37.488;2022-10-04T17:39:17;98324.25;;;7.66;100.00
74936;BME280;63501;55.570;37.488;2022-10-04T17:45:13;98328.59;;;7.56;100.00
74936;BME280;63501;55.570;37.488;2022-10-04T17:48:04;98329.00;;;7.55;100.00
74936;BME280;63501;55.570;37.488;2022-10-04T17:53:47;98334.13;;;7.46;100.00
74936;BME280;63501;55.570;37.488;2022-10-04T17:56:48;98336.13;;;7.34;100.00
74936;BME280;63501;55.570;37.488;2022-10-04T17:59:21;98328.31;;;7.22;100.00
74936;BME280;63501;55.570;37.488;2022-10-04T18:02:14;98331.47;;;7.06;100.00
74936;BME280;63501;55.570;37.488;2022-10-04T18:04:52;98335.41;;;6.95;100.00
74936;BME280;63501;55.570;37.488;2022-10-04T18:07:26;98333.44;;;6.88;100.00
74936;BME280;63501;55.570;37.488;2022-10-04T18:13:04;98330.31;;;6.79;100.00
74936;BME280;63501;55.570;37.488;2022-10-04T18:15:42;98330.72;;;6.81;100.00
74936;BME280;63501;55.570;37.488;2022-10-04T18:18:17;98319.75;;;6.74;100.00
74936;BME280;63501;55.570;37.488;2022-10-04T18:23:25;98338.97;;;6.92;100.00
74936;BME280;63501;55.570;37.488;2022-10-04T18:26:03;98329.16;;;6.91;100.00
74936;BME280;63501;55.570;37.488;2022-10-04T18:28:29;98349.53;;;6.89;100.00
74936;BME280;63501;55.570;37.488;2022-10-04T18:31:18;98342.50;;;6.85;100.00
74936;BME280;63501;55.570;37.488;2022-10-04T18:33:47;98340.91;;;6.77;100.00
74936;BME280;63501;55.570;37.488;2022-10-04T18:36:18;98344.44;;;6.70;100.00
74936;BME280;63501;55.570;37.488;2022-10-04T18:41:42;98335.44;;;6.62;99.78
74936;BME280;63501;55.570;37.488;2022-10-04T18:44:28;98337.38;;;6.51;100.00
74936;BME280;63501;55.570;37.488;2022-10-04T18:46:57;98344.44;;;6.52;100.00
74936;BME280;63501;55.570;37.488;2022-10-04T18:49:27;98351.50;;;6.46;100.00
74936;BME280;63501;55.570;37.488;2022-10-04T18:54:35;98347.94;;;6.39;100.00
74936;BME280;63501;55.570;37.488;2022-10-04T19:02:52;98353.41;;;6.28;100.00
74936;BME280;63501;55.570;37.488;2022-10-04T19:08:07;98348.31;;;6.19;100.00
74936;BME280;63501;55.570;37.488;2022-10-04T19:10:47;98351.03;;;6.16;100.00
74936;BME280;63501;55.570;37.488;2022-10-04T19:18:57;98352.56;;;6.02;100.00
74936;BME280;63501;55.570;37.488;2022-10-04T19:26:58;98357.25;;;5.98;100.00
74936;BME280;63501;55.570;37.488;2022-10-04T19:29:50;98357.69;;;6.07;100.00
74936;BME280;63501;55.570;37.488;2022-10-04T19:32:47;98366.72;;;6.15;99.95
74936;BME280;63501;55.570;37.488;2022-10-04T19:37:53;98367.53;;;6.19;100.00
74936;BME280;63501;55.570;37.488;2022-10-04T19:40:37;98367.53;;;6.19;100.00
74936;BME280;63501;55.570;37.488;2022-10-04T19:45:58;98364.78;;;6.23;100.00
74936;BME280;63501;55.570;37.488;2022-10-04T19:48:27;98368.69;;;6.22;100.00
74936;BME280;63501;55.570;37.488;2022-10-04T19:51:05;98361.22;;;6.15;100.00
74936;BME280;63501;55.570;37.488;2022-10-04T19:53:41;98363.19;;;6.11;100.00
74936;BME280;63501;55.570;37.488;2022-10-04T19:56:19;98360.47;;;6.18;100.00
74936;BME280;63501;55.570;37.488;2022-10-04T19:59:05;98349.91;;;6.24;100.00
74936;BME280;63501;55.570;37.488;2022-10-04T20:01:34;98360.06;;;6.20;100.00
74936;BME280;63501;55.570;37.488;2022-10-04T20:04:04;98329.81;;;5.98;100.00
74936;BME280;63501;55.570;37.488;2022-10-04T20:12:31;98360.72;;;5.84;100.00
74936;BME280;63501;55.570;37.488;2022-10-04T20:17:59;98360.34;;;5.86;100.00
74936;BME280;63501;55.570;37.488;2022-10-04T20:23:08;98352.56;;;5.95;100.00
74936;BME280;63501;55.570;37.488;2022-10-04T20:30:55;98352.94;;;5.97;100.00
74936;BME280;63501;55.570;37.488;2022-10-04T20:36:04;98360.41;;;5.97;100.00
74936;BME280;63501;55.570;37.488;2022-10-04T20:38:58;98360.00;;;5.98;100.00
74936;BME280;63501;55.570;37.488;2022-10-04T20:43:58;98348.63;;;6.00;100.00
74936;BME280;63501;55.570;37.488;2022-10-04T20:46:37;98343.16;;;6.00;100.00
74936;BME280;63501;55.570;37.488;2022-10-04T20:49:13;98354.53;;;6.02;100.00
74936;BME280;63501;55.570;37.488;2022-10-04T20:51:46;98351.78;;;6.02;100.00
74936;BME280;63501;55.570;37.488;2022-10-04T20:54:16;98345.53;;;6.05;100.00
74936;BME280;63501;55.570;37.488;2022-10-04T20:56:45;98351.78;;;6.05;100.00
74936;BME280;63501;55.570;37.488;2022-10-04T20:59:14;98345.94;;;6.07;100.00
74936;BME280;63501;55.570;37.488;2022-10-04T21:01:41;98344.38;;;6.13;100.00
74936;BME280;63501;55.570;37.488;2022-10-04T21:04:26;98338.50;;;6.15;100.00
74936;BME280;63501;55.570;37.488;2022-10-04T21:07:08;98349.47;;;6.15;100.00
74936;BME280;63501;55.570;37.488;2022-10-04T21:09:37;98345.94;;;6.10;100.00
74936;BME280;63501;55.570;37.488;2022-10-04T21:12:04;98345.16;;;6.06;100.00
74936;BME280;63501;55.570;37.488;2022-10-04T21:14:30;98342.38;;;6.03;100.00
74936;BME280;63501;55.570;37.488;2022-10-04T21:16:57;98334.16;;;5.96;100.00
74936;BME280;63501;55.570;37.488;2022-10-04T21:27:11;98323.88;;;5.89;100.00
74936;BME280;63501;55.570;37.488;2022-10-04T21:29:48;98334.53;;;5.98;100.00
74936;BME280;63501;55.570;37.488;2022-10-04T21:32:13;98330.22;;;5.97;100.00
74936;BME280;63501;55.570;37.488;2022-10-04T21:34:39;98334.91;;;6.00;100.00
74936;BME280;63501;55.570;37.488;2022-10-04T21:37:04;98343.94;;;6.00;100.00
74936;BME280;63501;55.570;37.488;2022-10-04T21:39:30;98332.97;;;6.00;100.00
74936;BME280;63501;55.570;37.488;2022-10-04T21:41:55;98332.56;;;5.98;100.00
74936;BME280;63501;55.570;37.488;2022-10-04T21:44:20;98330.22;;;5.97;100.00
74936;BME280;63501;55.570;37.488;2022-10-04T21:46:46;98334.13;;;5.99;100.00
74936;BME280;63501;55.570;37.488;2022-10-04T21:49:11;98339.25;;;6.01;100.00
74936;BME280;63501;55.570;37.488;2022-10-04T21:51:37;98329.06;;;6.05;100.00
74936;BME280;63501;55.570;37.488;2022-10-04T21:54:05;98330.63;;;6.09;100.00
74936;BME280;63501;55.570;37.488;2022-10-04T21:56:30;98329.88;;;6.13;100.00
74936;BME280;63501;55.570;37.488;2022-10-04T21:58:57;98334.59;;;6.12;100.00
74936;BME280;63501;55.570;37.488;2022-10-04T22:01:22;98327.13;;;6.13;100.00
74936;BME280;63501;55.570;37.488;2022-10-04T22:03:48;98323.97;;;6.10;100.00
74936;BME280;63501;55.570;37.488;2022-10-04T22:06:14;98325.16;;;6.09;100.00
74936;BME280;63501;55.570;37.488;2022-10-04T22:08:39;98336.50;;;6.12;100.00
74936;BME280;63501;55.570;37.488;2022-10-04T22:11:07;98332.19;;;6.10;100.00
74936;BME280;63501;55.570;37.488;2022-10-04T22:13:32;98333.38;;;6.09;100.00
74936;BME280;63501;55.570;37.488;2022-10-04T22:15:58;98331.81;;;6.08;100.00
74936;BME280;63501;55.570;37.488;2022-10-04T22:18:23;98327.50;;;6.04;100.00
74936;BME280;63501;55.570;37.488;2022-10-04T22:20:49;98327.50;;;6.07;100.00
74936;BME280;63501;55.570;37.488;2022-10-04T22:23:24;98329.84;;;6.09;100.00
74936;BME280;63501;55.570;37.488;2022-10-04T22:25:51;98323.97;;;6.07;100.00
74936;BME280;63501;55.570;37.488;2022-10-04T22:28:24;98327.13;;;6.09;100.00
74936;BME280;63501;55.570;37.488;2022-10-04T22:30:50;98318.88;;;6.05;100.00
74936;BME280;63501;55.570;37.488;2022-10-04T22:38:50;98322.00;;;6.11;100.00
74936;BME280;63501;55.570;37.488;2022-10-04T22:41:19;98322.78;;;6.12;100.00
74936;BME280;63501;55.570;37.488;2022-10-04T22:43:45;98318.09;;;6.08;100.00
74936;BME280;63501;55.570;37.488;2022-10-04T22:46:17;98324.75;;;6.11;100.00
74936;BME280;63501;55.570;37.488;2022-10-04T22:48:45;98332.19;;;6.10;100.00
74936;BME280;63501;55.570;37.488;2022-10-04T22:51:12;98326.31;;;6.08;100.00
74936;BME280;63501;55.570;37.488;2022-10-04T22:53:45;98319.25;;;6.04;100.00
74936;BME280;63501;55.570;37.488;2022-10-04T22:56:14;98318.09;;;6.01;100.00
74936;BME280;63501;55.570;37.488;2022-10-04T22:58:40;98323.56;;;5.98;100.00
74936;BME280;63501;55.570;37.488;2022-10-04T23:01:15;98318.84;;;5.95;100.00
74936;BME280;63501;55.570;37.488;2022-10-04T23:03:44;98323.53;;;5.94;100.00
74936;BME280;63501;55.570;37.488;2022-10-04T23:06:10;98327.06;;;5.91;100.00
74936;BME280;63501;55.570;37.488;2022-10-04T23:08:40;98323.50;;;5.91;100.00
74936;BME280;63501;55.570;37.488;2022-10-04T23:11:06;98321.94;;;5.86;100.00
74936;BME280;63501;55.570;37.488;2022-10-04T23:13:32;98325.06;;;5.88;100.00